Terminal Aerodrome Forecast
Issued by NWS Mt. Holly, NJ

Home | Current Version | Previous Version | Text Only | Print | Product List | Glossary On
Versions: 1 2 3 4 5 6 7 8 9 10 11 12 13 14
787
FTUS41 KPHI 221137
TAFTTN
TAF
KTTN 221137Z 2212/2312 VRB05KT P6SM SCT150
     FM221700 22005KT P6SM SCT050 BKN080 PROB30 2221/2303 2SM +TSRA
      OVC035CB
     FM230300 VRB05KT P6SM OVC050 PROB30 2303/2306 4SM TSRA OVC035CB
     FM230600 VRB05KT 6SM BR OVC015 PROB30 2306/2309 4SM TSRA
      OVC015CB=

USA.gov is the U.S. government's official web portal to all federal, state and local government web resources and services.